createdAt,value
2022-07-26T00:01:20.787Z,101163.06
2022-07-26T00:09:47.803Z,101156.63
2022-07-26T00:12:35.683Z,101102.66
2022-07-26T00:15:29.300Z,101095.88
2022-07-26T00:17:58.998Z,101211.66
2022-07-26T00:24:15.864Z,101184.84
2022-07-26T00:26:47.749Z,101218.94
2022-07-26T00:29:25.272Z,101169.81
2022-07-26T00:32:19.732Z,101041.13
2022-07-26T00:37:56.944Z,101161.53
2022-07-26T00:40:43.313Z,101039.78
2022-07-26T00:43:18.587Z,101180.47
2022-07-26T00:46:20.482Z,101221.50
2022-07-26T00:55:37.150Z,101059.31
2022-07-26T00:58:40.222Z,101227.16
2022-07-26T01:09:03.593Z,101231.31
2022-07-26T01:11:41.724Z,101225.31
2022-07-26T01:20:26.479Z,101229.84
2022-07-26T01:29:47.054Z,101199.16
2022-07-26T01:32:27.223Z,101188.66
2022-07-26T01:39:03.435Z,101245.63
2022-07-26T01:45:24.801Z,101251.41
2022-07-26T01:48:16.429Z,101076.06
2022-07-26T01:54:47.103Z,101248.53
2022-07-26T01:57:37.343Z,101202.78
2022-07-26T02:00:15.335Z,101142.66
2022-07-26T02:02:59.934Z,101215.34
2022-07-26T02:05:53.151Z,101255.63
2022-07-26T02:08:22.777Z,101054.13
2022-07-26T02:11:10.607Z,101053.56
2022-07-26T02:17:35.800Z,101284.44
2022-07-26T02:41:29.512Z,101284.28
2022-07-26T05:38:54.106Z,101333.78
2022-07-26T05:48:19.307Z,101514.19
2022-07-26T06:06:15.250Z,101358.50
2022-07-26T06:09:05.762Z,101327.94
2022-07-26T06:14:57.367Z,101308.06
2022-07-26T06:20:32.746Z,101503.41
2022-07-26T06:24:19.458Z,101341.38
2022-07-26T06:27:27.768Z,101442.44
2022-07-26T06:30:09.981Z,101526.47
2022-07-26T06:33:24.928Z,101392.75
2022-07-26T06:36:02.573Z,101576.22
2022-07-26T06:38:33.520Z,101372.94
2022-07-26T06:41:02.409Z,101441.59
2022-07-26T06:43:30.341Z,101407.88
2022-07-26T06:46:18.855Z,101598.88
2022-07-26T06:49:01.659Z,101407.78
2022-07-26T06:51:48.513Z,101554.84
2022-07-26T06:54:31.451Z,101602.09
2022-07-26T06:57:07.631Z,101472.34
2022-07-26T06:59:40.618Z,101606.88
2022-07-26T07:02:22.212Z,101489.84
2022-07-26T07:04:53.345Z,101600.22
2022-07-26T07:07:24.561Z,101611.81
2022-07-26T07:10:03.829Z,101521.28
2022-07-26T07:12:33.765Z,101435.81
2022-07-26T07:15:41.656Z,101526.13
2022-07-26T07:18:09.559Z,101632.13
2022-07-26T07:20:41.700Z,101431.19
2022-07-26T07:23:17.049Z,101639.56
2022-07-26T07:25:57.409Z,101580.97
2022-07-26T07:31:30.063Z,101442.34
2022-07-26T07:34:25.449Z,101482.00
2022-07-26T07:36:57.851Z,101451.50
2022-07-26T07:40:07.031Z,101467.66
2022-07-26T07:43:03.963Z,101656.13
2022-07-26T07:45:50.081Z,101659.38
2022-07-26T07:48:46.565Z,101663.50
2022-07-26T07:51:24.824Z,101471.91
2022-07-26T07:54:02.473Z,101462.97
2022-07-26T07:59:51.811Z,101601.53
2022-07-26T08:05:35.219Z,101661.44
2022-07-26T08:11:33.948Z,101624.94
2022-07-26T08:14:28.426Z,101486.00
2022-07-26T08:17:09.751Z,101629.81
2022-07-26T08:20:03.785Z,101636.13
2022-07-26T08:23:10.918Z,101630.66
2022-07-26T08:26:04.732Z,101604.16
2022-07-26T08:29:09.820Z,101495.81
2022-07-26T08:34:37.530Z,101486.00
2022-07-26T08:37:18.037Z,101621.72
2022-07-26T08:40:19.913Z,101692.31
2022-07-26T08:43:17.076Z,101514.56
2022-07-26T08:46:14.998Z,101524.59
2022-07-26T08:52:05.483Z,101605.91
2022-07-26T08:58:23.286Z,101548.47
2022-07-26T09:01:08.816Z,101568.81
2022-07-26T09:03:55.286Z,101616.50
2022-07-26T09:07:16.134Z,101753.25
2022-07-26T09:10:06.933Z,101566.63
2022-07-26T09:13:03.397Z,101566.25
2022-07-26T09:15:36.294Z,101775.31
2022-07-26T09:18:38.825Z,101650.84
2022-07-26T09:21:54.630Z,101759.78
2022-07-26T09:25:24.839Z,101565.03
2022-07-26T09:28:16.331Z,101594.22
2022-07-26T09:30:58.398Z,101688.41
2022-07-26T09:37:00.360Z,101592.69
2022-07-26T09:42:29.476Z,101741.78
2022-07-26T09:45:45.681Z,101730.69
2022-07-26T09:51:40.784Z,101787.81
2022-07-26T09:54:44.482Z,101617.72
2022-07-26T10:00:59.031Z,101786.19
2022-07-26T10:03:53.954Z,101705.53
2022-07-26T10:06:33.635Z,101754.19
2022-07-26T10:12:46.400Z,101604.84
2022-07-26T10:15:41.742Z,101630.75
2022-07-26T10:19:11.541Z,101638.28
2022-07-26T10:21:51.669Z,101805.47
2022-07-26T10:24:30.854Z,101813.72
2022-07-26T10:27:00.943Z,101682.03
2022-07-26T10:29:30.239Z,101745.91
2022-07-26T10:32:26.924Z,101808.59
2022-07-26T10:35:29.877Z,101622.72
2022-07-26T10:38:07.448Z,101644.59
2022-07-26T10:41:07.535Z,101642.72
2022-07-26T10:43:42.916Z,101652.03
2022-07-26T10:46:38.993Z,101811.53
2022-07-26T10:49:27.634Z,101815.47
2022-07-26T10:52:33.413Z,101756.81
2022-07-26T10:55:12.148Z,101715.53
2022-07-26T10:57:59.785Z,101847.03
2022-07-26T11:00:44.519Z,101787.59
2022-07-26T11:03:16.436Z,101801.25
2022-07-26T11:05:54.897Z,101844.75
2022-07-26T11:08:47.774Z,101653.63
2022-07-26T11:11:29.107Z,101669.34
2022-07-26T11:14:23.911Z,101748.53
2022-07-26T11:17:01.796Z,101860.03
2022-07-26T11:19:43.408Z,101673.13
2022-07-26T11:22:13.046Z,101828.66
2022-07-26T11:24:43.833Z,101819.19
2022-07-26T11:27:12.232Z,101717.69
2022-07-26T11:29:49.254Z,101855.38
2022-07-26T11:32:26.194Z,101796.81
2022-07-26T11:35:07.111Z,101762.59
2022-07-26T11:37:36.959Z,101727.78
2022-07-26T11:40:41.585Z,101783.94
2022-07-26T11:43:36.020Z,101685.31
2022-07-26T11:46:09.348Z,101832.31
2022-07-26T11:48:48.470Z,101802.47
2022-07-26T11:51:22.025Z,101834.84
2022-07-26T11:54:05.048Z,101696.88
2022-07-26T11:57:05.692Z,101761.13
2022-07-26T11:59:37.013Z,101844.41
2022-07-26T12:02:06.852Z,101687.88
2022-07-26T12:04:39.863Z,101827.50
2022-07-26T12:07:28.711Z,101702.19
2022-07-26T12:10:09.555Z,101868.94
2022-07-26T12:12:44.726Z,101826.88
2022-07-26T12:15:22.108Z,101865.97
2022-07-26T12:18:22.171Z,101866.16
2022-07-26T12:21:14.385Z,101769.28
2022-07-26T12:26:48.510Z,101866.97
2022-07-26T12:29:37.098Z,101830.69
2022-07-26T12:32:38.703Z,101720.84
2022-07-26T12:35:25.614Z,101886.75
2022-07-26T12:37:55.656Z,101730.09
2022-07-26T12:40:31.709Z,101843.63
2022-07-26T12:43:05.139Z,101707.44
2022-07-26T12:45:46.823Z,101723.84
2022-07-26T12:51:55.552Z,101680.66
2022-07-26T13:00:41.537Z,101759.06
2022-07-26T13:03:24.142Z,101783.19
2022-07-26T13:06:39.623Z,101722.66
2022-07-26T13:09:29.814Z,101838.06
2022-07-26T13:12:11.968Z,101726.16
2022-07-26T13:17:49.760Z,101827.09
2022-07-26T13:24:01.265Z,101870.06
2022-07-26T13:26:28.588Z,101903.84
2022-07-26T13:29:04.279Z,101904.34
2022-07-26T13:34:53.311Z,101859.38
2022-07-26T13:37:55.603Z,101853.41
2022-07-26T13:46:20.512Z,101877.38
2022-07-26T13:49:00.738Z,101882.88
2022-07-26T13:51:32.801Z,101778.16
2022-07-26T13:54:03.673Z,101764.00
2022-07-26T13:56:33.595Z,101735.50
2022-07-26T13:59:05.870Z,101746.28
2022-07-26T14:01:46.082Z,101747.78
2022-07-26T14:04:34.727Z,101760.38
2022-07-26T14:07:33.325Z,101764.81
2022-07-26T14:10:07.684Z,101864.84
2022-07-26T14:12:45.944Z,101779.22
2022-07-26T14:15:23.014Z,101750.31
2022-07-26T14:17:55.623Z,101930.34
2022-07-26T14:20:26.364Z,101942.78
2022-07-26T14:22:55.184Z,101751.56
2022-07-26T14:25:30.405Z,101874.22
2022-07-26T14:28:16.870Z,101846.56
2022-07-26T14:30:49.217Z,101856.31
2022-07-26T14:33:16.327Z,101940.88
2022-07-26T14:35:46.016Z,101935.75
2022-07-26T14:38:24.344Z,101766.09
2022-07-26T14:40:57.960Z,101789.81
2022-07-26T14:43:35.237Z,101794.66
2022-07-26T14:46:04.745Z,101938.00
2022-07-26T14:48:54.636Z,101950.63
2022-07-26T14:51:36.818Z,101879.00
2022-07-26T14:54:08.532Z,101946.63
2022-07-26T14:56:55.278Z,101878.31
2022-07-26T14:59:33.996Z,101915.06
2022-07-26T15:02:06.343Z,101961.28
2022-07-26T15:04:40.207Z,101764.63
2022-07-26T15:07:30.187Z,101766.47
2022-07-26T15:10:04.098Z,101869.72
2022-07-26T15:12:39.792Z,101775.63
2022-07-26T15:15:10.895Z,101959.03
2022-07-26T15:17:46.656Z,101956.22
2022-07-26T15:20:15.503Z,101900.22
2022-07-26T15:22:46.375Z,101971.69
2022-07-26T15:25:19.438Z,101944.09
2022-07-26T15:27:46.192Z,101972.75
2022-07-26T15:30:16.243Z,101973.19
2022-07-26T15:32:44.635Z,101952.72
2022-07-26T15:35:14.381Z,101940.16
2022-07-26T15:37:42.377Z,101963.09
2022-07-26T15:40:10.746Z,101978.00
2022-07-26T15:42:44.154Z,101978.44
2022-07-26T17:45:01.464Z,101972.69
2022-07-26T17:47:29.038Z,101785.59
2022-07-26T18:01:21.024Z,101789.09
2022-07-26T19:08:41.530Z,101997.44
2022-07-26T19:25:00.314Z,101788.38
2022-07-26T19:37:47.453Z,101831.75
2022-07-26T19:40:27.973Z,101959.31
2022-07-26T19:56:16.807Z,101950.25
2022-07-26T19:59:23.985Z,102053.66
2022-07-26T20:02:12.582Z,101896.16
2022-07-26T20:05:22.598Z,101840.47
2022-07-26T20:08:12.619Z,101980.25
2022-07-26T20:11:10.381Z,101846.38
2022-07-26T20:23:24.617Z,101864.88
2022-07-26T20:35:19.092Z,102049.38
2022-07-26T20:41:37.306Z,102040.13
2022-07-26T20:44:09.565Z,101963.19
2022-07-26T20:50:04.373Z,101828.25
2022-07-26T20:52:40.789Z,101929.16
2022-07-26T20:55:15.613Z,101850.81
2022-07-26T21:01:02.855Z,101825.00
2022-07-26T21:03:52.871Z,101877.47
2022-07-26T21:13:55.274Z,101933.56
2022-07-26T21:16:55.857Z,101855.03
2022-07-26T21:23:17.753Z,102073.91
2022-07-26T21:29:13.472Z,101924.66
2022-07-26T21:31:57.482Z,101858.81
2022-07-26T21:34:57.520Z,102061.59
2022-07-26T21:40:58.107Z,102075.22
2022-07-26T21:43:24.850Z,101960.56
2022-07-26T21:49:11.500Z,102061.53
2022-07-26T21:52:24.758Z,101975.00
2022-07-26T21:55:30.493Z,101834.94
2022-07-26T21:58:12.229Z,101942.88
2022-07-26T22:00:47.933Z,101856.66
2022-07-26T22:03:45.136Z,101851.75
2022-07-26T22:06:21.810Z,101868.38
2022-07-26T22:09:05.068Z,102070.34
2022-07-26T22:11:45.080Z,102080.97
2022-07-26T22:14:19.761Z,102070.38
2022-07-26T22:16:52.128Z,102017.56
2022-07-26T22:19:33.097Z,101857.25
2022-07-26T22:28:11.757Z,101869.56
2022-07-26T22:34:17.851Z,101914.19
2022-07-26T22:37:01.461Z,102056.88
2022-07-26T22:40:04.123Z,101870.91
2022-07-26T22:43:09.216Z,101843.41
2022-07-26T22:45:50.202Z,101886.97
2022-07-26T22:48:47.670Z,101860.84
2022-07-26T22:51:25.894Z,102019.34
2022-07-26T22:54:13.661Z,102008.47
2022-07-26T22:56:46.275Z,101904.41
2022-07-26T23:00:08.738Z,102095.13
2022-07-26T23:02:35.532Z,102024.28
2022-07-26T23:11:48.527Z,102072.22
2022-07-26T23:14:27.724Z,102028.63
2022-07-26T23:17:38.194Z,101884.25
2022-07-26T23:20:41.161Z,102088.06
2022-07-26T23:30:22.410Z,102083.19
2022-07-26T23:39:42.371Z,102089.47
2022-07-26T23:51:58.463Z,102070.59
